sensor_id;sensor_type;location;lat;lon;timestamp;P1;durP1;ratioP1;P2;durP2;ratioP2
75071;SDS011;63651;55.728;38.022;2023-03-01T00:03:44;4.10;;;1.15;;
75071;SDS011;63651;55.728;38.022;2023-03-01T00:08:46;2.08;;;0.70;;
75071;SDS011;63651;55.728;38.022;2023-03-01T00:13:48;4.97;;;0.70;;
75071;SDS011;63651;55.728;38.022;2023-03-01T00:18:53;2.92;;;0.70;;
75071;SDS011;63651;55.728;38.022;2023-03-01T00:23:55;1.92;;;0.80;;
75071;SDS011;63651;55.728;38.022;2023-03-01T00:28:56;3.13;;;1.27;;
75071;SDS011;63651;55.728;38.022;2023-03-01T00:34:00;3.03;;;0.90;;
75071;SDS011;63651;55.728;38.022;2023-03-01T00:39:03;2.05;;;0.52;;
75071;SDS011;63651;55.728;38.022;2023-03-01T00:44:06;2.13;;;0.50;;
75071;SDS011;63651;55.728;38.022;2023-03-01T00:49:07;1.48;;;0.63;;
75071;SDS011;63651;55.728;38.022;2023-03-01T00:54:09;3.53;;;1.40;;
75071;SDS011;63651;55.728;38.022;2023-03-01T00:59:10;1.55;;;0.80;;
75071;SDS011;63651;55.728;38.022;2023-03-01T01:04:11;2.25;;;0.45;;
75071;SDS011;63651;55.728;38.022;2023-03-01T01:09:14;2.10;;;0.47;;
75071;SDS011;63651;55.728;38.022;2023-03-01T01:14:18;2.35;;;0.57;;
75071;SDS011;63651;55.728;38.022;2023-03-01T01:19:20;4.03;;;1.10;;
75071;SDS011;63651;55.728;38.022;2023-03-01T01:24:21;1.58;;;0.90;;
75071;SDS011;63651;55.728;38.022;2023-03-01T01:29:23;1.65;;;0.98;;
75071;SDS011;63651;55.728;38.022;2023-03-01T01:34:24;2.40;;;1.20;;
75071;SDS011;63651;55.728;38.022;2023-03-01T01:39:25;1.70;;;0.70;;
75071;SDS011;63651;55.728;38.022;2023-03-01T01:44:26;2.00;;;0.82;;
75071;SDS011;63651;55.728;38.022;2023-03-01T01:49:31;1.73;;;1.10;;
75071;SDS011;63651;55.728;38.022;2023-03-01T01:54:44;1.65;;;0.50;;
75071;SDS011;63651;55.728;38.022;2023-03-01T01:59:54;3.58;;;0.88;;
75071;SDS011;63651;55.728;38.022;2023-03-01T02:05:09;1.73;;;0.70;;
75071;SDS011;63651;55.728;38.022;2023-03-01T02:10:15;2.42;;;0.70;;
75071;SDS011;63651;55.728;38.022;2023-03-01T02:15:17;1.88;;;0.90;;
75071;SDS011;63651;55.728;38.022;2023-03-01T02:30:54;1.58;;;0.32;;
75071;SDS011;63651;55.728;38.022;2023-03-01T02:36:20;1.75;;;0.60;;
75071;SDS011;63651;55.728;38.022;2023-03-01T02:41:32;1.17;;;0.30;;
75071;SDS011;63651;55.728;38.022;2023-03-01T02:46:42;1.15;;;0.40;;
75071;SDS011;63651;55.728;38.022;2023-03-01T02:52:01;1.50;;;0.40;;
75071;SDS011;63651;55.728;38.022;2023-03-01T02:57:14;0.90;;;0.25;;
75071;SDS011;63651;55.728;38.022;2023-03-01T03:02:23;1.08;;;0.30;;
75071;SDS011;63651;55.728;38.022;2023-03-01T03:07:40;2.03;;;0.20;;
75071;SDS011;63651;55.728;38.022;2023-03-01T03:12:42;1.23;;;0.32;;
75071;SDS011;63651;55.728;38.022;2023-03-01T03:17:43;1.88;;;0.30;;
75071;SDS011;63651;55.728;38.022;2023-03-01T03:22:45;1.17;;;0.30;;
75071;SDS011;63651;55.728;38.022;2023-03-01T03:27:48;1.75;;;0.20;;
75071;SDS011;63651;55.728;38.022;2023-03-01T03:32:57;1.75;;;0.20;;
75071;SDS011;63651;55.728;38.022;2023-03-01T03:38:00;1.33;;;0.20;;
75071;SDS011;63651;55.728;38.022;2023-03-01T03:43:28;0.80;;;0.50;;
75071;SDS011;63651;55.728;38.022;2023-03-01T03:48:27;2.65;;;0.55;;
75071;SDS011;63651;55.728;38.022;2023-03-01T03:53:28;4.10;;;0.38;;
75071;SDS011;63651;55.728;38.022;2023-03-01T03:58:30;2.13;;;0.20;;
75071;SDS011;63651;55.728;38.022;2023-03-01T04:03:31;1.23;;;0.30;;
75071;SDS011;63651;55.728;38.022;2023-03-01T04:08:33;0.90;;;0.30;;
75071;SDS011;63651;55.728;38.022;2023-03-01T04:13:34;4.18;;;0.95;;
75071;SDS011;63651;55.728;38.022;2023-03-01T04:18:35;2.80;;;0.60;;
75071;SDS011;63651;55.728;38.022;2023-03-01T04:23:36;1.25;;;0.57;;
75071;SDS011;63651;55.728;38.022;2023-03-01T04:28:39;1.92;;;0.45;;
75071;SDS011;63651;55.728;38.022;2023-03-01T04:33:49;2.10;;;0.50;;
75071;SDS011;63651;55.728;38.022;2023-03-01T04:38:52;1.30;;;0.20;;
75071;SDS011;63651;55.728;38.022;2023-03-01T04:43:53;1.55;;;0.30;;
75071;SDS011;63651;55.728;38.022;2023-03-01T04:48:55;1.33;;;0.35;;
75071;SDS011;63651;55.728;38.022;2023-03-01T04:53:56;2.17;;;0.60;;
75071;SDS011;63651;55.728;38.022;2023-03-01T04:58:57;1.17;;;0.43;;
75071;SDS011;63651;55.728;38.022;2023-03-01T05:03:58;1.73;;;0.60;;
75071;SDS011;63651;55.728;38.022;2023-03-01T05:09:03;1.35;;;0.32;;
75071;SDS011;63651;55.728;38.022;2023-03-01T05:14:05;2.45;;;0.70;;
75071;SDS011;63651;55.728;38.022;2023-03-01T05:19:07;1.35;;;0.20;;
75071;SDS011;63651;55.728;38.022;2023-03-01T05:24:15;2.00;;;0.60;;
75071;SDS011;63651;55.728;38.022;2023-03-01T05:29:21;1.08;;;0.40;;
75071;SDS011;63651;55.728;38.022;2023-03-01T05:34:27;2.47;;;0.50;;
75071;SDS011;63651;55.728;38.022;2023-03-01T05:39:30;4.43;;;0.55;;
75071;SDS011;63651;55.728;38.022;2023-03-01T05:44:32;3.63;;;0.68;;
75071;SDS011;63651;55.728;38.022;2023-03-01T05:49:33;1.60;;;0.70;;
75071;SDS011;63651;55.728;38.022;2023-03-01T05:54:35;2.22;;;0.40;;
75071;SDS011;63651;55.728;38.022;2023-03-01T05:59:36;2.35;;;0.55;;
75071;SDS011;63651;55.728;38.022;2023-03-01T06:04:37;2.15;;;0.68;;
75071;SDS011;63651;55.728;38.022;2023-03-01T06:09:38;2.38;;;0.50;;
75071;SDS011;63651;55.728;38.022;2023-03-01T06:14:39;1.25;;;0.43;;
75071;SDS011;63651;55.728;38.022;2023-03-01T06:19:40;0.85;;;0.32;;
75071;SDS011;63651;55.728;38.022;2023-03-01T06:24:42;1.50;;;0.43;;
75071;SDS011;63651;55.728;38.022;2023-03-01T06:29:43;4.88;;;0.95;;
75071;SDS011;63651;55.728;38.022;2023-03-01T06:34:44;1.52;;;0.77;;
75071;SDS011;63651;55.728;38.022;2023-03-01T06:39:45;1.25;;;0.43;;
75071;SDS011;63651;55.728;38.022;2023-03-01T06:44:46;2.75;;;0.63;;
75071;SDS011;63651;55.728;38.022;2023-03-01T06:49:47;1.05;;;0.43;;
75071;SDS011;63651;55.728;38.022;2023-03-01T06:54:48;1.77;;;0.80;;
75071;SDS011;63651;55.728;38.022;2023-03-01T06:59:49;1.42;;;0.52;;
75071;SDS011;63651;55.728;38.022;2023-03-01T07:04:51;1.92;;;0.60;;
75071;SDS011;63651;55.728;38.022;2023-03-01T07:09:52;3.08;;;0.70;;
75071;SDS011;63651;55.728;38.022;2023-03-01T07:14:53;1.35;;;0.70;;
75071;SDS011;63651;55.728;38.022;2023-03-01T07:19:55;1.55;;;0.63;;
75071;SDS011;63651;55.728;38.022;2023-03-01T07:24:56;1.77;;;0.60;;
75071;SDS011;63651;55.728;38.022;2023-03-01T07:29:57;1.92;;;0.63;;
75071;SDS011;63651;55.728;38.022;2023-03-01T07:34:58;1.88;;;0.60;;
75071;SDS011;63651;55.728;38.022;2023-03-01T07:40:00;2.80;;;0.90;;
75071;SDS011;63651;55.728;38.022;2023-03-01T07:45:01;1.42;;;0.68;;
75071;SDS011;63651;55.728;38.022;2023-03-01T07:50:03;1.92;;;0.90;;
75071;SDS011;63651;55.728;38.022;2023-03-01T07:55:04;2.78;;;1.00;;
75071;SDS011;63651;55.728;38.022;2023-03-01T08:00:06;2.10;;;1.10;;
75071;SDS011;63651;55.728;38.022;2023-03-01T08:05:09;2.22;;;0.73;;
75071;SDS011;63651;55.728;38.022;2023-03-01T08:10:10;1.83;;;0.68;;
75071;SDS011;63651;55.728;38.022;2023-03-01T08:15:12;2.70;;;1.52;;
75071;SDS011;63651;55.728;38.022;2023-03-01T08:20:13;1.63;;;0.73;;
75071;SDS011;63651;55.728;38.022;2023-03-01T08:25:16;2.53;;;0.70;;
75071;SDS011;63651;55.728;38.022;2023-03-01T08:30:17;1.25;;;0.60;;
75071;SDS011;63651;55.728;38.022;2023-03-01T08:35:19;2.05;;;0.60;;
75071;SDS011;63651;55.728;38.022;2023-03-01T08:40:20;3.22;;;0.70;;
75071;SDS011;63651;55.728;38.022;2023-03-01T08:45:21;2.40;;;0.80;;
75071;SDS011;63651;55.728;38.022;2023-03-01T08:50:23;2.80;;;1.08;;
75071;SDS011;63651;55.728;38.022;2023-03-01T08:55:24;3.08;;;0.85;;
75071;SDS011;63651;55.728;38.022;2023-03-01T09:00:26;1.77;;;0.68;;
75071;SDS011;63651;55.728;38.022;2023-03-01T09:05:27;2.65;;;0.90;;
75071;SDS011;63651;55.728;38.022;2023-03-01T09:10:28;2.47;;;1.48;;
75071;SDS011;63651;55.728;38.022;2023-03-01T09:15:29;4.75;;;2.42;;
75071;SDS011;63651;55.728;38.022;2023-03-01T09:20:30;4.78;;;2.22;;
75071;SDS011;63651;55.728;38.022;2023-03-01T09:25:33;2.55;;;1.17;;
75071;SDS011;63651;55.728;38.022;2023-03-01T09:30:35;3.88;;;1.80;;
75071;SDS011;63651;55.728;38.022;2023-03-01T09:35:36;2.55;;;1.30;;
75071;SDS011;63651;55.728;38.022;2023-03-01T09:40:41;2.72;;;1.23;;
75071;SDS011;63651;55.728;38.022;2023-03-01T09:45:43;4.43;;;1.73;;
75071;SDS011;63651;55.728;38.022;2023-03-01T09:50:46;2.38;;;1.23;;
75071;SDS011;63651;55.728;38.022;2023-03-01T10:01:25;2.05;;;0.73;;
75071;SDS011;63651;55.728;38.022;2023-03-01T10:06:46;2.30;;;0.70;;
75071;SDS011;63651;55.728;38.022;2023-03-01T10:11:58;2.33;;;0.70;;
75071;SDS011;63651;55.728;38.022;2023-03-01T10:17:09;1.58;;;1.10;;
75071;SDS011;63651;55.728;38.022;2023-03-01T10:22:32;4.20;;;0.90;;
75071;SDS011;63651;55.728;38.022;2023-03-01T10:27:43;3.08;;;1.10;;
75071;SDS011;63651;55.728;38.022;2023-03-01T10:32:52;3.42;;;0.70;;
75071;SDS011;63651;55.728;38.022;2023-03-01T10:38:10;3.33;;;0.70;;
75071;SDS011;63651;55.728;38.022;2023-03-01T10:43:16;2.60;;;0.65;;
75071;SDS011;63651;55.728;38.022;2023-03-01T10:48:19;1.52;;;0.70;;
75071;SDS011;63651;55.728;38.022;2023-03-01T10:53:25;1.98;;;0.73;;
75071;SDS011;63651;55.728;38.022;2023-03-01T10:58:29;1.90;;;0.80;;
75071;SDS011;63651;55.728;38.022;2023-03-01T11:03:35;1.92;;;0.90;;
75071;SDS011;63651;55.728;38.022;2023-03-01T11:08:43;1.85;;;0.68;;
75071;SDS011;63651;55.728;38.022;2023-03-01T11:13:52;2.10;;;0.60;;
75071;SDS011;63651;55.728;38.022;2023-03-01T11:18:59;1.70;;;0.50;;
75071;SDS011;63651;55.728;38.022;2023-03-01T11:24:14;1.60;;;0.70;;
75071;SDS011;63651;55.728;38.022;2023-03-01T11:29:38;1.77;;;0.40;;
75071;SDS011;63651;55.728;38.022;2023-03-01T11:34:54;1.38;;;0.63;;
75071;SDS011;63651;55.728;38.022;2023-03-01T11:40:22;1.92;;;0.70;;
75071;SDS011;63651;55.728;38.022;2023-03-01T11:45:26;1.73;;;0.70;;
75071;SDS011;63651;55.728;38.022;2023-03-01T11:50:44;2.70;;;1.20;;
75071;SDS011;63651;55.728;38.022;2023-03-01T12:06:12;2.55;;;0.77;;
75071;SDS011;63651;55.728;38.022;2023-03-01T12:17:14;2.15;;;0.77;;
75071;SDS011;63651;55.728;38.022;2023-03-01T12:22:35;1.63;;;1.10;;
75071;SDS011;63651;55.728;38.022;2023-03-01T12:44:46;1.73;;;0.90;;
75071;SDS011;63651;55.728;38.022;2023-03-01T12:50:01;1.38;;;0.80;;
75071;SDS011;63651;55.728;38.022;2023-03-01T12:55:59;3.17;;;1.30;;
75071;SDS011;63651;55.728;38.022;2023-03-01T13:00:40;1.40;;;0.73;;
75071;SDS011;63651;55.728;38.022;2023-03-01T13:11:20;3.15;;;0.77;;
75071;SDS011;63651;55.728;38.022;2023-03-01T13:21:30;2.25;;;1.25;;
75071;SDS011;63651;55.728;38.022;2023-03-01T13:26:32;2.53;;;1.20;;
75071;SDS011;63651;55.728;38.022;2023-03-01T13:32:12;2.15;;;0.90;;
75071;SDS011;63651;55.728;38.022;2023-03-01T13:37:40;2.08;;;0.77;;
75071;SDS011;63651;55.728;38.022;2023-03-01T13:42:45;2.53;;;0.73;;
75071;SDS011;63651;55.728;38.022;2023-03-01T13:47:50;3.53;;;0.80;;
75071;SDS011;63651;55.728;38.022;2023-03-01T13:53:04;2.72;;;0.90;;
75071;SDS011;63651;55.728;38.022;2023-03-01T13:58:20;1.83;;;1.60;;
75071;SDS011;63651;55.728;38.022;2023-03-01T14:03:25;2.95;;;1.15;;
75071;SDS011;63651;55.728;38.022;2023-03-01T14:08:29;2.13;;;0.90;;
75071;SDS011;63651;55.728;38.022;2023-03-01T14:23:58;2.90;;;2.13;;
75071;SDS011;63651;55.728;38.022;2023-03-01T14:28:59;1.70;;;0.98;;
75071;SDS011;63651;55.728;38.022;2023-03-01T14:34:02;1.90;;;1.05;;
75071;SDS011;63651;55.728;38.022;2023-03-01T14:39:15;1.85;;;1.20;;
75071;SDS011;63651;55.728;38.022;2023-03-01T14:44:19;2.95;;;0.90;;
75071;SDS011;63651;55.728;38.022;2023-03-01T14:49:27;1.95;;;0.70;;
75071;SDS011;63651;55.728;38.022;2023-03-01T14:54:39;2.40;;;1.40;;
75071;SDS011;63651;55.728;38.022;2023-03-01T14:59:43;2.25;;;1.38;;
75071;SDS011;63651;55.728;38.022;2023-03-01T15:04:50;3.30;;;1.83;;
75071;SDS011;63651;55.728;38.022;2023-03-01T15:09:53;2.03;;;1.70;;
75071;SDS011;63651;55.728;38.022;2023-03-01T15:14:55;4.13;;;2.17;;
75071;SDS011;63651;55.728;38.022;2023-03-01T15:19:57;2.22;;;1.30;;
75071;SDS011;63651;55.728;38.022;2023-03-01T15:24:59;2.28;;;1.75;;
75071;SDS011;63651;55.728;38.022;2023-03-01T15:30:00;2.47;;;1.63;;
75071;SDS011;63651;55.728;38.022;2023-03-01T15:40:36;1.77;;;0.82;;
75071;SDS011;63651;55.728;38.022;2023-03-01T15:45:55;1.95;;;1.35;;
75071;SDS011;63651;55.728;38.022;2023-03-01T15:50:58;3.30;;;1.45;;
75071;SDS011;63651;55.728;38.022;2023-03-01T15:56:00;3.00;;;1.40;;
75071;SDS011;63651;55.728;38.022;2023-03-01T16:01:01;1.88;;;1.40;;
75071;SDS011;63651;55.728;38.022;2023-03-01T16:06:02;2.05;;;1.60;;
75071;SDS011;63651;55.728;38.022;2023-03-01T16:11:13;2.67;;;1.10;;
75071;SDS011;63651;55.728;38.022;2023-03-01T16:16:17;2.97;;;1.13;;
75071;SDS011;63651;55.728;38.022;2023-03-01T16:21:20;1.40;;;0.80;;
75071;SDS011;63651;55.728;38.022;2023-03-01T16:26:26;2.90;;;1.30;;
75071;SDS011;63651;55.728;38.022;2023-03-01T16:31:27;2.88;;;1.20;;
75071;SDS011;63651;55.728;38.022;2023-03-01T16:36:29;3.55;;;2.08;;
75071;SDS011;63651;55.728;38.022;2023-03-01T16:41:29;2.38;;;1.70;;
75071;SDS011;63651;55.728;38.022;2023-03-01T16:46:30;3.03;;;1.17;;
75071;SDS011;63651;55.728;38.022;2023-03-01T16:51:31;2.13;;;1.92;;
75071;SDS011;63651;55.728;38.022;2023-03-01T16:56:35;2.67;;;1.50;;
75071;SDS011;63651;55.728;38.022;2023-03-01T17:01:37;1.95;;;1.08;;
75071;SDS011;63651;55.728;38.022;2023-03-01T17:06:39;3.30;;;1.73;;
75071;SDS011;63651;55.728;38.022;2023-03-01T17:11:40;2.00;;;1.58;;
75071;SDS011;63651;55.728;38.022;2023-03-01T17:16:41;2.03;;;1.30;;
75071;SDS011;63651;55.728;38.022;2023-03-01T17:21:44;3.13;;;1.13;;
75071;SDS011;63651;55.728;38.022;2023-03-01T17:26:45;3.45;;;1.35;;
75071;SDS011;63651;55.728;38.022;2023-03-01T17:31:46;2.13;;;1.35;;
75071;SDS011;63651;55.728;38.022;2023-03-01T17:36:48;1.75;;;1.35;;
75071;SDS011;63651;55.728;38.022;2023-03-01T17:41:51;3.00;;;1.67;;
75071;SDS011;63651;55.728;38.022;2023-03-01T17:46:52;3.47;;;1.80;;
75071;SDS011;63651;55.728;38.022;2023-03-01T17:51:54;2.40;;;1.40;;
75071;SDS011;63651;55.728;38.022;2023-03-01T17:56:55;3.30;;;1.25;;
75071;SDS011;63651;55.728;38.022;2023-03-01T18:01:58;4.40;;;2.42;;
75071;SDS011;63651;55.728;38.022;2023-03-01T18:07:01;4.70;;;2.85;;
75071;SDS011;63651;55.728;38.022;2023-03-01T18:12:02;3.15;;;1.70;;
75071;SDS011;63651;55.728;38.022;2023-03-01T18:17:03;3.33;;;1.33;;
75071;SDS011;63651;55.728;38.022;2023-03-01T18:22:11;2.92;;;1.80;;
75071;SDS011;63651;55.728;38.022;2023-03-01T18:27:12;1.90;;;0.90;;
75071;SDS011;63651;55.728;38.022;2023-03-01T18:32:13;2.63;;;1.42;;
75071;SDS011;63651;55.728;38.022;2023-03-01T18:37:14;2.63;;;1.77;;
75071;SDS011;63651;55.728;38.022;2023-03-01T18:42:15;3.95;;;1.90;;
75071;SDS011;63651;55.728;38.022;2023-03-01T18:47:19;3.05;;;1.35;;
75071;SDS011;63651;55.728;38.022;2023-03-01T18:52:21;4.35;;;2.45;;
75071;SDS011;63651;55.728;38.022;2023-03-01T18:57:22;3.30;;;1.88;;
75071;SDS011;63651;55.728;38.022;2023-03-01T19:02:23;3.30;;;1.77;;
75071;SDS011;63651;55.728;38.022;2023-03-01T19:07:24;2.83;;;1.30;;
75071;SDS011;63651;55.728;38.022;2023-03-01T19:12:25;3.83;;;1.50;;
75071;SDS011;63651;55.728;38.022;2023-03-01T19:17:27;1.42;;;1.20;;
75071;SDS011;63651;55.728;38.022;2023-03-01T19:22:30;2.58;;;1.50;;
75071;SDS011;63651;55.728;38.022;2023-03-01T19:27:31;1.63;;;1.10;;
75071;SDS011;63651;55.728;38.022;2023-03-01T19:32:33;2.30;;;1.30;;
75071;SDS011;63651;55.728;38.022;2023-03-01T19:37:34;2.58;;;1.73;;
75071;SDS011;63651;55.728;38.022;2023-03-01T19:42:35;4.80;;;3.13;;
75071;SDS011;63651;55.728;38.022;2023-03-01T19:47:36;4.82;;;2.95;;
75071;SDS011;63651;55.728;38.022;2023-03-01T19:52:37;1.95;;;1.50;;
75071;SDS011;63651;55.728;38.022;2023-03-01T19:57:38;2.78;;;1.50;;
75071;SDS011;63651;55.728;38.022;2023-03-01T20:02:39;2.75;;;1.45;;
75071;SDS011;63651;55.728;38.022;2023-03-01T20:07:40;2.95;;;1.40;;
75071;SDS011;63651;55.728;38.022;2023-03-01T20:12:42;2.65;;;1.52;;
75071;SDS011;63651;55.728;38.022;2023-03-01T20:17:43;2.63;;;1.27;;
75071;SDS011;63651;55.728;38.022;2023-03-01T20:22:44;2.60;;;1.38;;
75071;SDS011;63651;55.728;38.022;2023-03-01T20:27:45;2.00;;;0.77;;
75071;SDS011;63651;55.728;38.022;2023-03-01T20:32:47;4.03;;;1.88;;
75071;SDS011;63651;55.728;38.022;2023-03-01T20:37:50;2.08;;;1.38;;
75071;SDS011;63651;55.728;38.022;2023-03-01T20:42:58;2.40;;;1.02;;
75071;SDS011;63651;55.728;38.022;2023-03-01T20:48:00;1.70;;;0.80;;
75071;SDS011;63651;55.728;38.022;2023-03-01T20:53:01;2.83;;;1.17;;
75071;SDS011;63651;55.728;38.022;2023-03-01T20:58:02;1.90;;;0.80;;
75071;SDS011;63651;55.728;38.022;2023-03-01T21:03:03;2.90;;;1.10;;
75071;SDS011;63651;55.728;38.022;2023-03-01T21:08:04;2.08;;;0.80;;
75071;SDS011;63651;55.728;38.022;2023-03-01T21:13:05;1.00;;;0.77;;
75071;SDS011;63651;55.728;38.022;2023-03-01T21:18:06;2.13;;;1.10;;
75071;SDS011;63651;55.728;38.022;2023-03-01T21:23:07;2.15;;;1.13;;
75071;SDS011;63651;55.728;38.022;2023-03-01T21:28:08;1.33;;;1.08;;
75071;SDS011;63651;55.728;38.022;2023-03-01T21:33:09;2.58;;;1.00;;
75071;SDS011;63651;55.728;38.022;2023-03-01T21:38:10;2.35;;;0.90;;
75071;SDS011;63651;55.728;38.022;2023-03-01T21:43:11;2.13;;;1.08;;
75071;SDS011;63651;55.728;38.022;2023-03-01T21:48:13;1.42;;;0.73;;
75071;SDS011;63651;55.728;38.022;2023-03-01T21:53:14;1.13;;;0.60;;
75071;SDS011;63651;55.728;38.022;2023-03-01T21:58:15;1.70;;;0.77;;
75071;SDS011;63651;55.728;38.022;2023-03-01T22:03:16;1.27;;;0.50;;
75071;SDS011;63651;55.728;38.022;2023-03-01T22:08:17;1.92;;;0.70;;
75071;SDS011;63651;55.728;38.022;2023-03-01T22:13:18;1.58;;;0.68;;
75071;SDS011;63651;55.728;38.022;2023-03-01T22:18:20;1.75;;;0.70;;
75071;SDS011;63651;55.728;38.022;2023-03-01T22:23:21;1.52;;;0.70;;
75071;SDS011;63651;55.728;38.022;2023-03-01T22:28:22;1.17;;;0.50;;
75071;SDS011;63651;55.728;38.022;2023-03-01T22:33:23;1.67;;;0.80;;
75071;SDS011;63651;55.728;38.022;2023-03-01T22:38:24;1.67;;;0.57;;
75071;SDS011;63651;55.728;38.022;2023-03-01T22:43:25;1.30;;;0.68;;
75071;SDS011;63651;55.728;38.022;2023-03-01T22:48:27;1.08;;;0.73;;
75071;SDS011;63651;55.728;38.022;2023-03-01T22:53:28;1.67;;;0.80;;
75071;SDS011;63651;55.728;38.022;2023-03-01T22:58:29;2.72;;;0.93;;
75071;SDS011;63651;55.728;38.022;2023-03-01T23:03:30;1.58;;;0.90;;
75071;SDS011;63651;55.728;38.022;2023-03-01T23:08:32;2.67;;;0.80;;
75071;SDS011;63651;55.728;38.022;2023-03-01T23:13:33;2.30;;;0.90;;
75071;SDS011;63651;55.728;38.022;2023-03-01T23:18:34;2.05;;;0.70;;
75071;SDS011;63651;55.728;38.022;2023-03-01T23:23:37;2.03;;;0.45;;
75071;SDS011;63651;55.728;38.022;2023-03-01T23:28:38;2.05;;;0.73;;
75071;SDS011;63651;55.728;38.022;2023-03-01T23:33:43;1.60;;;0.60;;
75071;SDS011;63651;55.728;38.022;2023-03-01T23:38:45;2.03;;;0.65;;
75071;SDS011;63651;55.728;38.022;2023-03-01T23:43:49;1.42;;;0.75;;
75071;SDS011;63651;55.728;38.022;2023-03-01T23:48:52;2.00;;;0.60;;
75071;SDS011;63651;55.728;38.022;2023-03-01T23:53:57;3.00;;;0.68;;
75071;SDS011;63651;55.728;38.022;2023-03-01T23:59:02;2.42;;;0.82;;
